createdAt,value
2018-12-17T00:02:15.535Z,8.20
2018-12-17T00:04:44.614Z,7.25
2018-12-17T00:07:13.202Z,7.08
2018-12-17T00:09:41.773Z,7.58
2018-12-17T00:12:16.387Z,8.30
2018-12-17T00:14:40.749Z,9.38
2018-12-17T00:17:09.357Z,9.90
2018-12-17T00:19:37.854Z,14.03
2018-12-17T00:22:06.724Z,13.28
2018-12-17T00:24:35.154Z,13.05
2018-12-17T00:27:03.877Z,11.65
2018-12-17T00:29:33.160Z,10.75
2018-12-17T00:32:01.679Z,9.10
2018-12-17T00:34:30.822Z,9.30
2018-12-17T00:37:00.041Z,8.83
2018-12-17T00:39:28.588Z,8.63
2018-12-17T00:41:57.823Z,9.18
2018-12-17T00:44:27.069Z,8.68
2018-12-17T00:46:55.926Z,9.10
2018-12-17T00:49:24.626Z,8.25
2018-12-17T00:51:53.850Z,8.95
2018-12-17T00:54:23.051Z,9.48
2018-12-17T00:56:51.682Z,8.18
2018-12-17T00:59:20.140Z,8.38
2018-12-17T01:01:48.815Z,8.43
2018-12-17T01:04:17.324Z,8.58
2018-12-17T01:06:46.383Z,9.15
2018-12-17T01:09:15.427Z,8.48
2018-12-17T01:11:43.969Z,8.40
2018-12-17T01:14:12.529Z,8.18
2018-12-17T01:16:41.749Z,7.55
2018-12-17T01:19:10.451Z,7.83
2018-12-17T01:21:39.239Z,9.20
2018-12-17T01:24:08.224Z,8.33
2018-12-17T01:26:36.841Z,11.18
2018-12-17T01:29:05.332Z,11.95
2018-12-17T01:31:33.846Z,12.63
2018-12-17T01:34:02.926Z,15.28
2018-12-17T01:36:31.419Z,14.78
2018-12-17T01:39:00.068Z,14.40
2018-12-17T01:41:28.620Z,14.25
2018-12-17T01:43:57.178Z,15.05
2018-12-17T01:46:25.646Z,15.93
2018-12-17T01:48:54.291Z,15.23
2018-12-17T01:51:22.957Z,16.15
2018-12-17T01:53:51.396Z,15.80
2018-12-17T01:56:19.974Z,14.98
2018-12-17T01:58:48.538Z,15.85
2018-12-17T02:01:17.249Z,15.20
2018-12-17T02:03:45.746Z,15.55
2018-12-17T02:06:14.252Z,16.17
2018-12-17T02:08:43.902Z,16.57
2018-12-17T02:11:12.778Z,16.67
2018-12-17T02:13:42.110Z,16.45
2018-12-17T02:16:11.362Z,15.05
2018-12-17T02:18:40.046Z,15.83
2018-12-17T02:21:08.773Z,16.57
2018-12-17T02:23:37.747Z,15.13
2018-12-17T02:26:06.840Z,15.63
2018-12-17T02:28:36.250Z,14.18
2018-12-17T02:31:05.254Z,15.90
2018-12-17T02:33:33.975Z,16.27
2018-12-17T02:36:02.612Z,18.27
2018-12-17T02:38:31.264Z,16.10
2018-12-17T02:40:59.786Z,15.70
2018-12-17T02:43:28.396Z,18.02
2018-12-17T02:45:57.013Z,15.53
2018-12-17T02:48:26.308Z,15.63
2018-12-17T02:50:55.362Z,15.03
2018-12-17T02:53:24.021Z,17.50
2018-12-17T02:55:52.595Z,16.73
2018-12-17T02:58:21.200Z,14.33
2018-12-17T03:00:50.250Z,14.55
2018-12-17T03:03:18.933Z,13.45
2018-12-17T03:05:47.641Z,14.15
2018-12-17T03:08:16.887Z,14.58
2018-12-17T03:10:45.532Z,14.40
2018-12-17T03:13:14.207Z,15.13
2018-12-17T03:15:42.890Z,14.03
2018-12-17T03:18:11.594Z,14.73
2018-12-17T03:22:04.440Z,14.73
2018-12-17T03:24:33.190Z,14.23
2018-12-17T03:27:01.742Z,13.20
2018-12-17T03:29:30.363Z,13.55
2018-12-17T03:31:59.178Z,13.88
2018-12-17T03:34:28.422Z,15.03
2018-12-17T03:36:57.039Z,13.03
2018-12-17T03:39:25.633Z,12.05
2018-12-17T03:41:54.262Z,12.85
2018-12-17T03:44:22.917Z,10.75
2018-12-17T03:46:51.864Z,10.97
2018-12-17T03:49:20.654Z,10.00
2018-12-17T03:51:49.332Z,11.73
2018-12-17T03:54:17.950Z,10.87
2018-12-17T03:56:46.981Z,10.45
2018-12-17T03:59:15.670Z,9.70
2018-12-17T04:01:44.176Z,9.43
2018-12-17T04:04:13.069Z,9.00
2018-12-17T04:06:41.726Z,8.03
2018-12-17T04:09:10.246Z,9.28
2018-12-17T04:11:38.890Z,9.10
2018-12-17T04:14:08.170Z,8.75
2018-12-17T04:16:37.030Z,9.23
2018-12-17T04:19:05.514Z,9.08
2018-12-17T04:21:34.056Z,9.73
2018-12-17T04:24:02.568Z,9.70
2018-12-17T04:26:31.710Z,8.88
2018-12-17T04:29:06.722Z,10.82
2018-12-17T04:31:32.281Z,9.90
2018-12-17T04:34:00.909Z,9.80
2018-12-17T04:36:29.358Z,9.80
2018-12-17T04:38:57.938Z,11.33
2018-12-17T04:41:27.129Z,10.43
2018-12-17T04:43:55.733Z,9.63
2018-12-17T04:46:24.299Z,10.43
2018-12-17T04:48:53.017Z,10.98
2018-12-17T04:51:21.494Z,10.57
2018-12-17T04:53:50.059Z,10.67
2018-12-17T04:56:19.030Z,10.45
2018-12-17T04:58:47.514Z,9.90
2018-12-17T05:01:16.062Z,10.88
2018-12-17T05:03:44.686Z,10.82
2018-12-17T05:06:13.474Z,10.38
2018-12-17T05:08:42.059Z,10.45
2018-12-17T05:11:10.804Z,10.23
2018-12-17T05:13:39.606Z,10.35
2018-12-17T05:16:08.184Z,10.05
2018-12-17T05:18:37.155Z,10.50
2018-12-17T05:21:05.890Z,9.63
2018-12-17T05:23:34.830Z,10.58
2018-12-17T05:26:03.761Z,11.40
2018-12-17T05:28:32.226Z,9.40
2018-12-17T05:31:01.357Z,10.27
2018-12-17T05:33:29.979Z,10.63
2018-12-17T05:36:01.193Z,9.70
2018-12-17T05:38:30.083Z,10.03
2018-12-17T05:40:58.829Z,9.88
2018-12-17T05:43:27.372Z,10.80
2018-12-17T05:45:55.854Z,9.17
2018-12-17T05:48:24.427Z,10.08
2018-12-17T05:50:53.681Z,9.80
2018-12-17T05:53:22.517Z,10.75
2018-12-17T05:55:51.852Z,9.15
2018-12-17T05:58:20.418Z,9.33
2018-12-17T06:00:49.168Z,9.50
2018-12-17T06:03:17.803Z,11.20
2018-12-17T06:05:46.387Z,12.45
2018-12-17T06:08:15.610Z,13.30
2018-12-17T06:10:44.239Z,12.30
2018-12-17T06:13:13.081Z,12.10
2018-12-17T06:15:42.489Z,11.50
2018-12-17T06:18:11.501Z,12.87
2018-12-17T06:20:40.299Z,11.95
2018-12-17T06:23:09.161Z,10.45
2018-12-17T06:25:37.705Z,10.03
2018-12-17T06:28:06.352Z,10.13
2018-12-17T06:30:34.895Z,10.10
2018-12-17T06:33:03.485Z,10.25
2018-12-17T06:35:32.147Z,11.20
2018-12-17T06:38:00.693Z,10.30
2018-12-17T06:40:29.762Z,11.12
2018-12-17T06:42:58.260Z,13.10
2018-12-17T06:45:27.125Z,11.00
2018-12-17T06:47:55.686Z,9.88
2018-12-17T06:50:24.262Z,9.85
2018-12-17T06:52:52.890Z,9.93
2018-12-17T06:55:21.383Z,8.93
2018-12-17T06:57:50.266Z,8.93
2018-12-17T07:00:18.802Z,10.70
2018-12-17T07:02:47.887Z,12.68
2018-12-17T07:05:16.655Z,14.90
2018-12-17T07:07:45.920Z,14.05
2018-12-17T07:10:14.395Z,12.00
2018-12-17T07:12:42.997Z,11.83
2018-12-17T07:15:11.514Z,13.10
2018-12-17T07:17:40.209Z,9.95
2018-12-17T07:20:08.886Z,12.15
2018-12-17T07:22:37.461Z,14.65
2018-12-17T07:25:06.220Z,9.65
2018-12-17T07:27:34.798Z,9.95
2018-12-17T07:30:04.749Z,8.33
2018-12-17T07:32:33.334Z,9.43
2018-12-17T07:35:01.817Z,9.10
2018-12-17T07:37:31.419Z,10.55
2018-12-17T07:40:00.018Z,9.90
2018-12-17T07:42:28.523Z,11.15
2018-12-17T07:44:57.735Z,10.03
2018-12-17T07:47:26.250Z,10.20
2018-12-17T07:49:55.351Z,10.18
2018-12-17T07:52:23.861Z,9.38
2018-12-17T07:54:52.926Z,9.40
2018-12-17T07:57:21.459Z,12.20
2018-12-17T07:59:56.503Z,11.18
2018-12-17T08:02:20.550Z,11.60
2018-12-17T08:04:49.083Z,10.65
2018-12-17T08:07:17.610Z,9.50
2018-12-17T08:09:46.138Z,9.93
2018-12-17T08:12:14.626Z,13.08
2018-12-17T08:14:43.131Z,10.03
2018-12-17T08:17:11.796Z,11.00
2018-12-17T08:19:40.333Z,9.95
2018-12-17T08:22:09.423Z,13.75
2018-12-17T08:24:37.907Z,11.55
2018-12-17T08:27:06.432Z,11.53
2018-12-17T08:29:35.207Z,10.15
2018-12-17T08:32:04.382Z,11.08
2018-12-17T08:34:33.663Z,11.70
2018-12-17T08:37:02.355Z,12.10
2018-12-17T08:39:30.885Z,12.80
2018-12-17T08:41:59.394Z,11.95
2018-12-17T08:44:27.921Z,10.25
2018-12-17T08:46:57.058Z,11.53
2018-12-17T08:49:25.686Z,11.78
2018-12-17T08:51:55.178Z,14.50
2018-12-17T08:54:23.659Z,10.40
2018-12-17T08:56:52.246Z,8.60
2018-12-17T08:59:20.875Z,11.35
2018-12-17T09:01:49.761Z,10.13
2018-12-17T09:04:18.433Z,10.55
2018-12-17T09:06:47.289Z,12.07
2018-12-17T09:09:16.571Z,11.23
2018-12-17T09:11:45.451Z,9.17
2018-12-17T09:14:14.203Z,10.05
2018-12-17T09:16:43.658Z,8.43
2018-12-17T09:19:12.259Z,9.00
2018-12-17T09:21:41.911Z,12.20
2018-12-17T09:24:10.701Z,12.80
2018-12-17T09:26:39.474Z,12.83
2018-12-17T09:29:08.187Z,11.07
2018-12-17T09:31:36.825Z,11.37
2018-12-17T09:34:06.234Z,11.77
2018-12-17T09:36:34.936Z,13.17
2018-12-17T09:39:04.729Z,12.33
2018-12-17T09:41:33.295Z,10.87
2018-12-17T09:44:03.765Z,10.47
2018-12-17T09:46:33.102Z,10.07
2018-12-17T09:49:02.469Z,10.07
2018-12-17T09:51:31.175Z,10.33
2018-12-17T09:53:59.790Z,10.03
2018-12-17T09:56:28.559Z,9.77
2018-12-17T09:58:57.305Z,10.13
2018-12-17T10:01:25.896Z,10.93
2018-12-17T10:03:54.385Z,13.07
2018-12-17T10:06:23.017Z,13.47
2018-12-17T10:08:52.284Z,14.53
2018-12-17T10:11:20.949Z,14.77
2018-12-17T10:13:49.581Z,14.13
2018-12-17T10:16:18.294Z,15.03
2018-12-17T10:18:47.631Z,14.60
2018-12-17T10:21:16.239Z,15.60
2018-12-17T10:23:46.177Z,13.67
2018-12-17T10:26:16.012Z,14.60
2018-12-17T10:28:44.681Z,14.07
2018-12-17T10:31:13.456Z,13.20
2018-12-17T10:33:42.595Z,13.10
2018-12-17T10:36:11.243Z,13.63
2018-12-17T10:38:39.904Z,12.50
2018-12-17T10:41:08.593Z,12.10
2018-12-17T10:43:37.132Z,11.07
2018-12-17T10:46:05.859Z,11.30
2018-12-17T10:48:35.064Z,11.70
2018-12-17T10:51:03.698Z,11.83
2018-12-17T10:53:32.316Z,10.47
2018-12-17T10:56:01.122Z,11.00
2018-12-17T10:58:29.885Z,10.33
2018-12-17T11:01:03.748Z,9.80
2018-12-17T11:03:38.691Z,10.00
2018-12-17T11:06:11.353Z,9.77
2018-12-17T11:08:40.594Z,10.30
2018-12-17T11:11:09.201Z,10.93
2018-12-17T11:13:37.841Z,10.80
2018-12-17T11:16:06.544Z,10.57
2018-12-17T11:18:35.443Z,10.00
2018-12-17T11:21:04.036Z,10.50
2018-12-17T11:23:33.294Z,10.43
2018-12-17T11:26:01.903Z,9.90
2018-12-17T11:28:30.484Z,8.50
2018-12-17T11:30:59.464Z,7.60
2018-12-17T11:33:28.078Z,7.40
2018-12-17T11:35:56.698Z,7.50
2018-12-17T11:38:25.403Z,7.23
2018-12-17T11:40:54.397Z,6.00
2018-12-17T11:43:23.187Z,5.90
2018-12-17T11:45:52.094Z,5.53
2018-12-17T11:48:21.099Z,5.00
2018-12-17T11:50:49.724Z,4.97
2018-12-17T11:53:18.348Z,5.17
2018-12-17T11:55:47.057Z,5.10
2018-12-17T11:58:15.934Z,6.07
2018-12-17T12:00:53.964Z,5.33
2018-12-17T12:03:21.515Z,5.07
2018-12-17T12:05:50.421Z,5.00
2018-12-17T12:08:19.117Z,5.63
2018-12-17T12:10:48.045Z,6.80
2018-12-17T12:13:17.332Z,5.53
2018-12-17T12:15:46.364Z,5.33
2018-12-17T12:18:15.045Z,5.90
2018-12-17T12:20:43.834Z,6.10
2018-12-17T12:23:12.814Z,6.27
2018-12-17T12:25:41.498Z,6.00
2018-12-17T12:28:10.185Z,6.33
2018-12-17T12:30:38.843Z,4.90
2018-12-17T12:33:08.160Z,7.07
2018-12-17T12:35:37.305Z,13.07
2018-12-17T12:38:06.532Z,13.40
2018-12-17T12:40:35.072Z,16.07
2018-12-17T12:43:03.527Z,9.80
2018-12-17T12:45:32.306Z,6.80
2018-12-17T12:48:00.831Z,6.90
2018-12-17T12:50:29.547Z,7.87
2018-12-17T12:52:58.457Z,3.70
2018-12-17T12:55:27.179Z,4.10
2018-12-17T12:57:55.914Z,4.07
2018-12-17T13:00:24.611Z,4.40
2018-12-17T13:02:53.493Z,5.83
2018-12-17T13:05:21.969Z,3.50
2018-12-17T13:07:50.560Z,2.90
2018-12-17T13:10:19.594Z,4.20
2018-12-17T13:12:48.070Z,6.00
2018-12-17T13:15:16.627Z,5.53
2018-12-17T13:17:45.650Z,4.33
2018-12-17T13:20:14.319Z,5.63
2018-12-17T13:22:42.840Z,6.10
2018-12-17T13:25:17.457Z,6.53
2018-12-17T13:27:46.043Z,7.17
2018-12-17T13:30:14.727Z,9.67
2018-12-17T13:32:43.237Z,9.87
2018-12-17T13:35:11.815Z,9.03
2018-12-17T13:37:40.349Z,11.07
2018-12-17T13:40:10.499Z,5.77
2018-12-17T13:42:39.078Z,5.10
2018-12-17T13:45:07.733Z,3.47
2018-12-17T13:47:36.216Z,2.57
2018-12-17T13:50:11.045Z,3.40
2018-12-17T13:52:44.760Z,4.70
2018-12-17T13:55:13.648Z,4.50
2018-12-17T13:57:42.522Z,5.70
2018-12-17T14:00:12.439Z,6.30
2018-12-17T14:02:41.193Z,5.73
2018-12-17T14:05:10.446Z,4.17
2018-12-17T14:07:39.507Z,5.37
2018-12-17T14:10:15.435Z,4.50
2018-12-17T14:12:44.058Z,4.00
2018-12-17T14:15:12.695Z,3.90
2018-12-17T14:17:45.472Z,6.20
2018-12-17T14:20:19.424Z,5.87
2018-12-17T14:22:48.639Z,5.30
2018-12-17T14:25:17.228Z,4.40
2018-12-17T14:27:45.809Z,4.90
2018-12-17T14:30:14.559Z,4.80
2018-12-17T14:32:43.705Z,4.33
2018-12-17T14:35:12.455Z,5.13
2018-12-17T14:38:12.012Z,5.67
2018-12-17T14:40:40.642Z,6.13
2018-12-17T14:43:09.732Z,8.60
2018-12-17T14:45:38.800Z,7.83
2018-12-17T14:48:08.047Z,13.93
2018-12-17T14:50:36.683Z,11.37
2018-12-17T14:53:05.393Z,9.63
2018-12-17T14:55:34.226Z,7.00
2018-12-17T14:58:03.067Z,8.60
2018-12-17T15:00:31.605Z,10.50
2018-12-17T15:03:00.462Z,15.23
2018-12-17T15:05:29.234Z,11.43
2018-12-17T15:07:58.008Z,11.73
2018-12-17T15:10:27.147Z,7.60
2018-12-17T15:12:56.162Z,8.90
2018-12-17T15:15:25.604Z,4.60
2018-12-17T15:17:54.821Z,2.40
2018-12-17T15:20:23.472Z,2.17
2018-12-17T15:22:52.140Z,1.80
2018-12-17T15:25:21.259Z,1.87
2018-12-17T15:27:51.055Z,1.80
2018-12-17T15:30:19.891Z,1.90
2018-12-17T15:32:49.066Z,1.70
2018-12-17T15:35:17.676Z,1.87
2018-12-17T15:37:46.306Z,1.50
2018-12-17T15:40:15.392Z,1.70
2018-12-17T15:42:44.126Z,1.20
2018-12-17T15:45:13.341Z,1.33
2018-12-17T15:47:42.110Z,1.37
2018-12-17T15:50:10.918Z,1.33
2018-12-17T15:52:39.585Z,1.50
2018-12-17T15:55:08.511Z,1.40
2018-12-17T15:57:37.536Z,1.27
2018-12-17T16:00:08.834Z,2.10
2018-12-17T16:02:37.417Z,2.57
2018-12-17T16:05:06.429Z,2.67
2018-12-17T16:07:35.308Z,2.97
2018-12-17T16:10:04.745Z,2.10
2018-12-17T16:12:33.381Z,2.43
2018-12-17T16:15:02.397Z,1.83
2018-12-17T16:17:31.355Z,1.50
2018-12-17T16:20:00.161Z,1.53
2018-12-17T16:22:28.802Z,1.63
2018-12-17T16:24:57.541Z,1.63
2018-12-17T16:27:26.268Z,1.70
2018-12-17T16:29:55.045Z,1.30
2018-12-17T16:32:23.899Z,1.50
2018-12-17T16:34:53.026Z,1.70
2018-12-17T16:37:21.733Z,1.80
2018-12-17T16:39:50.893Z,1.63
2018-12-17T16:42:20.502Z,1.70
2018-12-17T16:44:49.313Z,2.20
2018-12-17T16:47:19.279Z,2.00
2018-12-17T16:49:47.911Z,2.37
2018-12-17T16:52:16.548Z,2.10
2018-12-17T16:54:45.112Z,2.60
2018-12-17T16:57:13.968Z,2.43
2018-12-17T16:59:42.667Z,2.40
2018-12-17T17:02:15.700Z,2.10
2018-12-17T17:04:44.446Z,2.10
2018-12-17T17:07:13.098Z,2.80
2018-12-17T17:09:41.807Z,3.00
2018-12-17T17:12:10.589Z,2.80
2018-12-17T17:14:39.184Z,3.17
2018-12-17T17:17:07.928Z,2.97
2018-12-17T17:19:36.885Z,3.13
2018-12-17T17:22:06.300Z,3.03
2018-12-17T17:24:34.995Z,3.63
2018-12-17T17:27:03.755Z,3.83
2018-12-17T17:29:32.535Z,4.07
2018-12-17T17:32:01.213Z,3.97
2018-12-17T17:34:29.867Z,3.90
2018-12-17T17:36:58.546Z,3.30
2018-12-17T17:39:27.150Z,3.87
2018-12-17T17:41:55.814Z,3.63
2018-12-17T17:44:25.317Z,3.73
2018-12-17T17:46:53.963Z,3.33
2018-12-17T17:49:22.827Z,6.20
2018-12-17T17:51:51.364Z,4.63
2018-12-17T17:54:20.083Z,4.50
2018-12-17T17:56:48.660Z,4.00
2018-12-17T17:59:17.306Z,4.83
2018-12-17T18:01:45.856Z,5.00
2018-12-17T18:04:14.465Z,5.33
2018-12-17T18:06:43.129Z,5.70
2018-12-17T18:09:11.814Z,5.60
2018-12-17T18:11:40.441Z,13.70
2018-12-17T18:14:09.097Z,14.83
2018-12-17T18:16:38.488Z,13.83
2018-12-17T18:19:07.183Z,8.90
2018-12-17T18:21:35.868Z,7.93
2018-12-17T18:24:04.704Z,6.50
2018-12-17T18:26:33.436Z,5.60
2018-12-17T18:29:02.783Z,6.13
2018-12-17T18:31:31.783Z,5.57
2018-12-17T18:34:00.336Z,5.10
2018-12-17T18:36:29.206Z,5.37
2018-12-17T18:38:59.683Z,6.00
2018-12-17T18:41:29.027Z,7.90
2018-12-17T18:43:57.878Z,4.73
2018-12-17T18:46:26.980Z,4.97
2018-12-17T18:48:55.784Z,4.27
2018-12-17T18:51:24.566Z,4.77
2018-12-17T18:53:53.707Z,4.60
2018-12-17T18:56:23.140Z,4.17
2018-12-17T18:58:51.881Z,3.90
2018-12-17T19:01:20.560Z,4.20
2018-12-17T19:03:49.356Z,3.90
2018-12-17T19:06:19.146Z,4.00
2018-12-17T19:08:48.027Z,3.73
2018-12-17T19:11:16.673Z,4.03
2018-12-17T19:13:45.318Z,3.70
2018-12-17T19:16:13.912Z,3.70
2018-12-17T19:18:42.784Z,4.50
2018-12-17T19:21:11.431Z,20.10
2018-12-17T19:23:40.158Z,24.07
2018-12-17T19:26:09.835Z,14.07
2018-12-17T19:28:38.697Z,8.43
2018-12-17T19:31:07.466Z,10.00
2018-12-17T19:33:36.644Z,10.87
2018-12-17T19:36:05.319Z,20.40
2018-12-17T19:38:34.280Z,11.03
2018-12-17T19:41:03.170Z,9.20
2018-12-17T19:43:32.163Z,20.30
2018-12-17T19:46:01.628Z,28.33
2018-12-17T19:48:30.783Z,26.03
2018-12-17T19:50:59.526Z,18.10
2018-12-17T19:53:28.305Z,16.87
2018-12-17T19:55:57.162Z,19.37
2018-12-17T19:58:26.543Z,19.33
2018-12-17T20:00:55.456Z,16.53
2018-12-17T20:03:24.367Z,16.13
2018-12-17T20:05:53.005Z,15.27
2018-12-17T20:08:21.768Z,13.50
2018-12-17T20:10:50.477Z,12.87
2018-12-17T20:13:19.111Z,11.63
2018-12-17T20:15:48.102Z,12.33
2018-12-17T20:18:16.730Z,10.57
2018-12-17T20:20:45.422Z,11.53
2018-12-17T20:23:14.082Z,10.80
2018-12-17T20:25:43.332Z,9.37
2018-12-17T20:28:12.044Z,8.50
2018-12-17T20:30:41.002Z,9.53
2018-12-17T20:33:09.872Z,8.13
2018-12-17T20:35:39.118Z,7.40
2018-12-17T20:38:07.787Z,7.87
2018-12-17T20:40:36.634Z,7.50
2018-12-17T20:43:06.001Z,7.30
2018-12-17T20:45:34.744Z,8.73
2018-12-17T20:48:03.572Z,7.60
2018-12-17T20:50:32.654Z,9.00
2018-12-17T20:53:01.414Z,7.80
2018-12-17T20:55:30.823Z,7.47
2018-12-17T20:57:59.799Z,8.30
2018-12-17T21:00:28.521Z,7.80
2018-12-17T21:03:00.347Z,7.07
2018-12-17T21:05:28.493Z,8.87
2018-12-17T21:07:57.065Z,7.63
2018-12-17T21:10:25.737Z,9.47
2018-12-17T21:12:54.580Z,9.80
2018-12-17T21:15:23.582Z,8.33
2018-12-17T21:17:53.105Z,8.77
2018-12-17T21:20:22.862Z,12.97
2018-12-17T21:22:51.551Z,9.83
2018-12-17T21:25:20.167Z,11.60
2018-12-17T21:27:49.492Z,9.40
2018-12-17T21:30:18.107Z,9.60
2018-12-17T21:32:47.203Z,10.90
2018-12-17T21:35:15.949Z,9.60
2018-12-17T21:37:44.727Z,10.07
2018-12-17T21:40:13.362Z,10.57
2018-12-17T21:42:41.982Z,10.50
2018-12-17T21:45:10.575Z,10.60
2018-12-17T21:47:39.373Z,10.67
2018-12-17T21:50:08.617Z,9.83
2018-12-17T21:52:37.533Z,9.37
2018-12-17T21:55:06.502Z,7.97
2018-12-17T21:57:35.946Z,8.48
2018-12-17T22:00:05.775Z,8.63
2018-12-17T22:02:34.543Z,8.50
2018-12-17T22:05:03.662Z,9.03
2018-12-17T22:07:32.522Z,9.28
2018-12-17T22:10:01.505Z,8.83
2018-12-17T22:12:30.055Z,9.38
2018-12-17T22:14:58.596Z,8.55
2018-12-17T22:17:27.156Z,8.38
2018-12-17T22:19:55.719Z,8.90
2018-12-17T22:22:24.249Z,9.23
2018-12-17T22:24:53.465Z,9.75
2018-12-17T22:27:22.066Z,9.55
2018-12-17T22:29:50.946Z,10.17
2018-12-17T22:32:19.445Z,9.28
2018-12-17T22:34:48.035Z,9.80
2018-12-17T22:37:16.659Z,9.40
2018-12-17T22:39:45.275Z,9.60
2018-12-17T22:42:13.877Z,9.30
2018-12-17T22:44:42.739Z,9.37
2018-12-17T22:47:11.970Z,9.40
2018-12-17T22:49:40.558Z,8.40
2018-12-17T22:52:09.531Z,9.27
2018-12-17T22:54:38.233Z,9.13
2018-12-17T22:57:06.918Z,9.57
2018-12-17T22:59:36.581Z,10.90
2018-12-17T23:02:05.314Z,10.97
2018-12-17T23:04:34.081Z,12.50
2018-12-17T23:07:03.044Z,12.07
2018-12-17T23:09:42.816Z,11.93
2018-12-17T23:12:23.717Z,11.27
2018-12-17T23:15:04.173Z,11.43
2018-12-17T23:17:40.991Z,10.70
2018-12-17T23:20:10.342Z,11.13
2018-12-17T23:22:42.756Z,15.70
2018-12-17T23:25:11.618Z,14.57
2018-12-17T23:27:49.287Z,11.17
2018-12-17T23:30:18.205Z,11.67
2018-12-17T23:32:46.792Z,9.27
2018-12-17T23:35:15.315Z,9.60
2018-12-17T23:37:44.685Z,9.17
2018-12-17T23:40:13.231Z,9.07
2018-12-17T23:42:41.861Z,8.83
2018-12-17T23:45:11.239Z,8.57
2018-12-17T23:47:39.769Z,8.90
2018-12-17T23:50:08.274Z,9.97
2018-12-17T23:52:36.780Z,11.20
2018-12-17T23:55:05.590Z,10.97
2018-12-17T23:57:34.498Z,10.27
